Dades meteomassalio
Diari Summary for Nil La, TWC- Units:  Metric    English   Both
« Previous Day
Next Day »
Diari Semanal Mensual Anual Personalitzat
  Maxima: Minima: Mijana:
Temperatura: -17.8 °C -11.6 °C -9.4 °C
Rosada: -17.8 °C -14.2 °C -12.8 °C
Humitat: Humidity % 57 % 66 %
Velocitat del vent: 0 km/h 0 km/h 14.2 km/h
Racha vent: 0 km/h - -
Vent:- - WNW
Pressio: 0 hPa 34554.1 hPa -
Pluja: 0 mm    
Historical Graphs
 
 
Tabular Data for Nil La, TWC-
Time Temperature Dew Point Pressure Wind Wind Speed Wind Gust Humidity Rainfall Rate (Hourly) solar Conditions
-17.8 °C -17.8 °C 0 hPa Calm     Humidity % 0 mm SolarRadiationWatts/m^2 W/m2 Conditions
00:04 -6.3 °C -11.3 °C 34554.1 hPa NW 35.7 km/h 32.3 km/h 57 % 0 mm 0.00 W/m2 CLR
00:09 -6.3 °C -11.1 °C 34557.5 hPa NNW 35.7 km/h 31.4 km/h 58 % 0 mm 0.00 W/m2 CLR
00:14 -6.3 °C -11.1 °C 34560.9 hPa NW 29.8 km/h 30.3 km/h 58 % 0 mm 0.00 W/m2 CLR
00:19 -6.3 °C -11.1 °C 34560.9 hPa NW 28.5 km/h 20.8 km/h 58 % 0 mm 0.00 W/m2 CLR
00:24 -6.3 °C -10.9 °C 34560.9 hPa NW 26.9 km/h 20.9 km/h 59 % 0 mm 0.00 W/m2 CLR
00:29 -6.7 °C -11.3 °C 34564.3 hPa WNW 26.9 km/h 17.1 km/h 59 % 0 mm 0.00 W/m2 CLR
00:34 -6.7 °C -11.3 °C 34567.7 hPa NW 35.7 km/h 26.4 km/h 59 % 0 mm 0.00 W/m2 CLR
00:39 -6.7 °C -11.3 °C 34564.3 hPa NNW 38.8 km/h 29.5 km/h 59 % 0 mm 0.00 W/m2 CLR
00:44 -6.7 °C -11.3 °C 34564.3 hPa NW 32.8 km/h 19.6 km/h 59 % 0 mm 0.00 W/m2 CLR
00:49 -6.7 °C -11.1 °C 34567.7 hPa NW 29.8 km/h 19.6 km/h 60 % 0 mm 0.00 W/m2 CLR
00:54 -7 °C -11.4 °C 34567.7 hPa WNW 15 km/h   60 % 0 mm 0.00 W/m2 CLR
00:59 -7 °C -11.4 °C 34571.1 hPa WNW 29.8 km/h 23 km/h 60 % 0 mm 0.00 W/m2 CLR
01:04 -7 °C -11.4 °C 34571.1 hPa NW 25.9 km/h 17.1 km/h 60 % 0 mm 0.00 W/m2 CLR
01:09 -7 °C -11.4 °C 34574.4 hPa NW 20.8 km/h 18.3 km/h 60 % 0 mm 0.00 W/m2 CLR
01:14 -7 °C -11.3 °C 34574.4 hPa NW 26.9 km/h 20.9 km/h 61 % 0 mm 0.00 W/m2 CLR
01:19 -7 °C -11.3 °C 34577.8 hPa WNW 17.9 km/h 14.8 km/h 61 % 0 mm 0.00 W/m2 CLR
01:24 -7.3 °C -11.6 °C 34581.2 hPa West 12.9 km/h 10.6 km/h 61 % 0 mm 0.00 W/m2 CLR
01:29 -7.3 °C -11.6 °C 34581.2 hPa WNW 9 km/h 0.8 km/h 61 % 0 mm 0.00 W/m2 CLR
01:34 -7.3 °C -11.4 °C 34581.2 hPa WNW 17.9 km/h 10.1 km/h 62 % 0 mm 0.00 W/m2 CLR
01:39 -7.3 °C -11.4 °C 34581.2 hPa NW 9 km/h   62 % 0 mm 0.00 W/m2 CLR
01:44 -7.6 °C -11.7 °C 34577.8 hPa NW 20.9 km/h 6.9 km/h 62 % 0 mm 0.00 W/m2 CLR
01:49 -7.6 °C -11.7 °C 34577.8 hPa WNW 20.9 km/h 6.3 km/h 62 % 0 mm 0.00 W/m2 CLR
01:54 -7.6 °C -11.6 °C 34577.8 hPa Calm     63 % 0 mm 0.00 W/m2 CLR
01:59 -7.9 °C -11.9 °C 34577.8 hPa WNW 15.6 km/h 9.8 km/h 63 % 0 mm 0.00 W/m2 CLR
02:04 -7.9 °C -11.9 °C 34577.8 hPa WSW 9 km/h 1.6 km/h 63 % 0 mm 0.00 W/m2 CLR
02:09 -7.9 °C -11.9 °C 34574.4 hPa WSW 3.1 km/h   63 % 0 mm 0.00 W/m2 CLR
02:14 -8.2 °C -12.1 °C 34574.4 hPa Calm     64 % 0 mm 0.00 W/m2 CLR
02:19 -8.2 °C -12.1 °C 34574.4 hPa Calm     64 % 0 mm 0.00 W/m2 CLR
02:24 -8.5 °C -12.2 °C 34577.8 hPa West 9 km/h 0.5 km/h 65 % 0 mm 0.00 W/m2 CLR
02:29 -8.8 °C -12.5 °C 34574.4 hPa Calm     65 % 0 mm 0.00 W/m2 CLR
02:34 -8.8 °C -12.3 °C 34571.1 hPa Calm     66 % 0 mm 0.00 W/m2 CLR
02:39 -9.1 °C -12.7 °C 34574.4 hPa West 11.9 km/h 9.8 km/h 66 % 0 mm 0.00 W/m2 CLR
02:44 -9.4 °C -12.9 °C 34574.4 hPa West 9 km/h 0.3 km/h 66 % 0 mm 0.00 W/m2 CLR
02:49 -9.4 °C -12.9 °C 34574.4 hPa Calm     66 % 0 mm 0.00 W/m2 CLR
02:54 -9.4 °C -12.8 °C 34574.4 hPa Calm     67 % 0 mm 0.00 W/m2 CLR
02:59 -9.8 °C -13.1 °C 34577.8 hPa WNW 9 km/h 3.4 km/h 67 % 0 mm 0.00 W/m2 CLR
03:04 -9.8 °C -13.1 °C 34577.8 hPa West 12.9 km/h 9.8 km/h 67 % 0 mm 0.00 W/m2 CLR
03:09 -10.1 °C -13.4 °C 34577.8 hPa West 11.9 km/h 8.9 km/h 67 % 0 mm 0.00 W/m2 CLR
03:14 -10.1 °C -13.4 °C 34581.2 hPa WSW 6 km/h 1 km/h 67 % 0 mm 0.00 W/m2 CLR
03:19 -10.1 °C -13.4 °C 34581.2 hPa WSW 7.7 km/h 2.1 km/h 67 % 0 mm 0.00 W/m2 CLR
03:22 -10.1 °C -13.3 °C 34581.2 hPa West 10.3 km/h 8 km/h 68 % 0 mm 0.00 W/m2 CLR
03:29 -10.4 °C -13.4 °C 34577.8 hPa West 11.9 km/h 4.2 km/h 69 % 0 mm 0.00 W/m2 CLR
03:34 -10.4 °C -13.4 °C 34574.4 hPa WNW 11.9 km/h 7.6 km/h 69 % 0 mm 0.00 W/m2 CLR
03:39 -10.4 °C -13.4 °C 34574.4 hPa West 9 km/h 6.3 km/h 69 % 0 mm 0.00 W/m2 CLR
03:44 -10.4 °C -13.6 °C 34574.4 hPa Calm     68 % 0 mm 0.00 W/m2 CLR
03:49 -10.4 °C -13.4 °C 34574.4 hPa West 15 km/h 11.9 km/h 69 % 0 mm 0.00 W/m2 CLR
03:54 -10.4 °C -13.3 °C 34571.1 hPa West 15 km/h 14 km/h 70 % 0 mm 0.00 W/m2 CLR
03:59 -10.7 °C -13.7 °C 34571.1 hPa West 23.8 km/h 12.7 km/h 70 % 0 mm 0.00 W/m2 CLR
04:04 -10.7 °C -13.7 °C 34574.4 hPa West 11.9 km/h 8.9 km/h 70 % 0 mm 0.00 W/m2 CLR
04:09 -10.7 °C -13.7 °C 34571.1 hPa West 15.6 km/h 9.7 km/h 70 % 0 mm 0.00 W/m2 CLR
04:14 -10.7 °C -13.7 °C 34571.1 hPa WNW 15.6 km/h 11.1 km/h 70 % 0 mm 0.00 W/m2 CLR
04:19 -10.7 °C -13.7 °C 34571.1 hPa West 17.9 km/h 13.5 km/h 70 % 0 mm 0.00 W/m2 CLR
04:24 -10.7 °C -13.7 °C 34574.4 hPa West 15 km/h 8.5 km/h 70 % 0 mm 0.00 W/m2 CLR
04:29 -10.7 °C -13.7 °C 34571.1 hPa West 15 km/h 9.8 km/h 70 % 0 mm 0.00 W/m2 CLR
04:34 -10.7 °C -13.7 °C 34571.1 hPa West 11.9 km/h 10.9 km/h 70 % 0 mm 0.00 W/m2 CLR
04:39 -10.7 °C -13.5 °C 34571.1 hPa WNW 15 km/h 10.9 km/h 71 % 0 mm 0.00 W/m2 CLR
04:44 -10.7 °C -13.5 °C 34574.4 hPa WNW 11.9 km/h 10.1 km/h 71 % 0 mm 0.00 W/m2 CLR
04:49 -10.7 °C -13.5 °C 34571.1 hPa WNW 12.9 km/h 10.9 km/h 71 % 0 mm 0.00 W/m2 CLR
04:54 -10.7 °C -13.5 °C 34574.4 hPa Calm     71 % 0 mm 0.00 W/m2 CLR
04:59 -10.7 °C -13.5 °C 34571.1 hPa West 9 km/h 7.7 km/h 71 % 0 mm 0.00 W/m2 CLR
05:04 -10.7 °C -13.5 °C 34567.7 hPa WNW 15.6 km/h 11.6 km/h 71 % 0 mm 0.00 W/m2 CLR
05:09 -10.7 °C -13.5 °C 34567.7 hPa WNW 23.8 km/h 14.2 km/h 71 % 0 mm 0.00 W/m2 CLR
05:14 -11 °C -13.8 °C 34567.7 hPa West 17.9 km/h 10.6 km/h 71 % 0 mm 0.00 W/m2 CLR
05:19 -11 °C -13.8 °C 34567.7 hPa WNW 11.9 km/h 10.3 km/h 71 % 0 mm 0.00 W/m2 CLR
05:24 -11 °C -13.8 °C 34567.7 hPa West 15 km/h 11.4 km/h 71 % 0 mm 0.00 W/m2 CLR
05:29 -11 °C -13.8 °C 34571.1 hPa West 9 km/h 3.1 km/h 71 % 0 mm 0.00 W/m2 CLR
05:34 -11 °C -13.7 °C 34571.1 hPa West 9 km/h 3.9 km/h 72 % 0 mm 0.00 W/m2 CLR
05:39 -11.3 °C -14 °C 34571.1 hPa West 15.6 km/h 11.4 km/h 72 % 0 mm 0.00 W/m2 CLR
05:44 -11.3 °C -13.9 °C 34571.1 hPa West 15 km/h 10.6 km/h 73 % 0 mm 0.00 W/m2 CLR
05:49 -11.3 °C -14 °C 34571.1 hPa WNW 15 km/h 3.1 km/h 72 % 0 mm 0.00 W/m2 CLR
05:54 -11.3 °C -13.9 °C 34571.1 hPa West 11.9 km/h 5 km/h 73 % 0 mm 0.00 W/m2 CLR
05:59 -11.3 °C -14 °C 34571.1 hPa West 6 km/h   72 % 0 mm 0.00 W/m2 CLR
06:04 -11.3 °C -13.9 °C 34571.1 hPa WNW 15 km/h 10.3 km/h 73 % 0 mm 0.00 W/m2 CLR
06:09 -11.3 °C -13.9 °C 34571.1 hPa West 15 km/h 8 km/h 73 % 0 mm 0.00 W/m2 CLR
06:14 -11.3 °C -13.9 °C 34571.1 hPa Calm   4.3 km/h 73 % 0 mm 0.00 W/m2 CLR
06:19 -11.3 °C -13.9 °C 34571.1 hPa WNW 9 km/h 5.1 km/h 73 % 0 mm 0.00 W/m2 CLR
06:24 -11.3 °C -13.8 °C 34577.8 hPa WNW 11.9 km/h 6.4 km/h 74 % 0 mm 0.00 W/m2 CLR
06:29 -11.6 °C -14.1 °C 34577.8 hPa WNW 11.9 km/h 8.2 km/h 74 % 0 mm 0.00 W/m2 CLR
06:34 -11.6 °C -14.1 °C 34581.2 hPa West 11.9 km/h 4.2 km/h 74 % 0 mm 0.00 W/m2 CLR
06:39 -11.6 °C -14.2 °C 34574.4 hPa West 10.3 km/h 3.9 km/h 73 % 0 mm 0.00 W/m2 CLR
Lo Temps de Massalio
Compliments of Weather Underground - 512 kb